createdAt,value
2023-03-01T00:01:41.284Z,-4.03
2023-03-01T00:06:48.903Z,-4.12
2023-03-01T00:11:52.770Z,-4.21
2023-03-01T00:16:56.634Z,-4.28
2023-03-01T00:22:00.424Z,-4.39
2023-03-01T00:27:04.330Z,-4.50
2023-03-01T00:32:08.612Z,-4.54
2023-03-01T00:37:12.692Z,-4.59
2023-03-01T00:42:17.978Z,-4.66
2023-03-01T00:47:21.885Z,-4.71
2023-03-01T00:52:25.801Z,-4.75
2023-03-01T00:57:30.274Z,-4.83
2023-03-01T01:02:35.210Z,-4.92
2023-03-01T01:07:39.388Z,-4.86
2023-03-01T01:12:48.522Z,-4.54
2023-03-01T01:17:52.391Z,-4.36
2023-03-01T01:22:56.159Z,-4.46
2023-03-01T01:28:01.029Z,-4.74
2023-03-01T01:33:04.725Z,-4.80
2023-03-01T01:38:08.648Z,-4.63
2023-03-01T01:43:29.059Z,-4.54
2023-03-01T01:48:46.924Z,-4.35
2023-03-01T01:53:55.268Z,-4.12
2023-03-01T01:58:59.179Z,-4.03
2023-03-01T02:04:03.077Z,-4.00
2023-03-01T02:09:12.120Z,-4.01
2023-03-01T02:14:17.163Z,-4.02
2023-03-01T02:19:44.581Z,-3.99
2023-03-01T02:25:06.579Z,-4.01
2023-03-01T02:30:13.641Z,-4.11
2023-03-01T02:35:19.539Z,-4.19
2023-03-01T02:40:23.248Z,-4.24
2023-03-01T02:45:28.350Z,-4.26
2023-03-01T02:50:32.036Z,-4.26
2023-03-01T02:55:35.828Z,-4.26
2023-03-01T03:00:48.228Z,-4.33
2023-03-01T03:05:53.430Z,-4.58
2023-03-01T03:10:57.478Z,-4.81
2023-03-01T03:16:05.011Z,-4.95
2023-03-01T03:21:13.945Z,-5.08
2023-03-01T03:26:25.207Z,-5.18
2023-03-01T03:31:30.005Z,-5.22
2023-03-01T03:36:34.405Z,-5.21
2023-03-01T03:41:38.157Z,-5.15
2023-03-01T03:46:41.805Z,-5.03
2023-03-01T03:51:47.798Z,-4.93
2023-03-01T03:56:51.392Z,-4.88
2023-03-01T04:01:55.153Z,-4.89
2023-03-01T04:06:58.885Z,-4.92
2023-03-01T04:12:02.460Z,-4.97
2023-03-01T04:17:07.204Z,-4.99
2023-03-01T04:22:12.556Z,-5.01
2023-03-01T04:27:16.387Z,-4.98
2023-03-01T04:32:21.703Z,-4.95
2023-03-01T04:37:27.131Z,-4.91
2023-03-01T04:42:31.295Z,-4.88
2023-03-01T04:47:39.265Z,-4.95
2023-03-01T04:52:46.242Z,-5.04
2023-03-01T04:57:49.918Z,-5.11
2023-03-01T05:02:56.743Z,-5.15
2023-03-01T05:08:03.470Z,-5.15
2023-03-01T05:13:07.896Z,-5.18
2023-03-01T05:18:12.714Z,-5.24
2023-03-01T05:23:17.334Z,-5.29
2023-03-01T05:28:21.857Z,-5.31
2023-03-01T05:33:26.599Z,-5.32
2023-03-01T05:38:30.292Z,-5.34
2023-03-01T05:43:36.632Z,-5.29
2023-03-01T05:48:41.041Z,-5.21
2023-03-01T05:53:45.747Z,-5.14
2023-03-01T05:58:51.147Z,-5.00
2023-03-01T06:03:55.332Z,-4.90
2023-03-01T06:08:59.013Z,-4.84
2023-03-01T06:14:03.072Z,-4.78
2023-03-01T06:19:06.862Z,-4.69
2023-03-01T06:24:10.654Z,-4.56
2023-03-01T06:29:15.022Z,-4.44
2023-03-01T06:34:18.724Z,-4.33
2023-03-01T06:39:23.955Z,-4.21
2023-03-01T06:44:28.407Z,-4.08
2023-03-01T06:49:32.072Z,-3.95
2023-03-01T06:54:35.662Z,-3.74
2023-03-01T06:59:39.376Z,-3.48
2023-03-01T07:04:43.822Z,-3.21
2023-03-01T07:09:50.847Z,-3.08
2023-03-01T07:14:55.088Z,-3.08
2023-03-01T07:19:58.825Z,-2.97
2023-03-01T07:25:05.596Z,-2.83
2023-03-01T07:30:12.354Z,-2.67
2023-03-01T07:35:17.216Z,-2.44
2023-03-01T07:40:23.260Z,-2.13
2023-03-01T07:45:27.644Z,-1.82
2023-03-01T07:50:32.294Z,-1.56
2023-03-01T07:55:37.714Z,-1.30
2023-03-01T08:00:41.672Z,-1.04
2023-03-01T08:05:47.786Z,-0.84
2023-03-01T08:10:53.617Z,-0.66
2023-03-01T08:16:12.508Z,-0.50
2023-03-01T08:21:21.097Z,-0.30
2023-03-01T08:26:25.331Z,-0.08
2023-03-01T08:31:38.072Z,0.17
2023-03-01T08:36:45.783Z,0.40
2023-03-01T08:41:50.596Z,0.65
2023-03-01T08:46:55.933Z,0.88
2023-03-01T08:52:02.398Z,1.05
2023-03-01T08:57:06.919Z,1.19
2023-03-01T09:02:17.226Z,1.52
2023-03-01T09:07:21.789Z,1.89
2023-03-01T09:12:27.572Z,2.16
2023-03-01T09:17:31.636Z,2.32
2023-03-01T09:22:37.006Z,2.47
2023-03-01T09:27:41.091Z,2.69
2023-03-01T09:32:46.129Z,2.91
2023-03-01T09:37:52.343Z,3.04
2023-03-01T09:43:07.585Z,3.18
2023-03-01T09:48:27.606Z,3.36
2023-03-01T09:53:37.895Z,3.45
2023-03-01T09:59:01.043Z,3.56
2023-03-01T10:04:29.857Z,3.63
2023-03-01T10:09:36.547Z,3.67
2023-03-01T10:14:59.585Z,3.73
2023-03-01T10:20:25.205Z,3.76
2023-03-01T10:25:41.812Z,3.88
2023-03-01T10:30:47.305Z,3.92
2023-03-01T10:35:51.891Z,4.03
2023-03-01T10:41:02.725Z,4.18
2023-03-01T10:46:29.288Z,4.33
2023-03-01T10:51:36.168Z,4.35
2023-03-01T10:57:01.941Z,4.41
2023-03-01T11:02:31.940Z,4.51
2023-03-01T11:07:55.321Z,4.57
2023-03-01T11:13:27.162Z,4.63
2023-03-01T11:18:46.289Z,4.69
2023-03-01T11:23:56.076Z,4.73
2023-03-01T11:29:04.173Z,4.76
2023-03-01T11:34:20.641Z,4.84
2023-03-01T11:39:53.846Z,5.02
2023-03-01T11:45:01.501Z,5.22
2023-03-01T11:50:16.756Z,5.13
2023-03-01T11:55:48.848Z,4.97
2023-03-01T12:01:15.504Z,4.95
2023-03-01T12:06:29.081Z,4.99
2023-03-01T12:11:53.048Z,5.05
2023-03-01T12:17:07.260Z,5.07
2023-03-01T12:22:27.326Z,5.17
2023-03-01T12:27:47.573Z,5.28
2023-03-01T12:33:25.475Z,5.38
2023-03-01T12:38:51.744Z,5.49
2023-03-01T12:44:07.431Z,5.51
2023-03-01T12:49:21.044Z,5.52
2023-03-01T12:54:30.247Z,5.55
2023-03-01T13:00:10.328Z,5.67
2023-03-01T13:05:35.435Z,5.76
2023-03-01T13:10:55.962Z,5.76
2023-03-01T13:16:23.031Z,5.79
2023-03-01T13:21:33.261Z,5.80
2023-03-01T13:27:09.526Z,5.83
2023-03-01T13:32:44.514Z,5.82
2023-03-01T13:37:49.189Z,5.82
2023-03-01T13:43:04.693Z,5.80
2023-03-01T13:48:20.683Z,5.81
2023-03-01T13:53:27.888Z,5.84
2023-03-01T13:58:35.665Z,5.94
2023-03-01T14:03:44.005Z,5.99
2023-03-01T14:08:50.572Z,6.06
2023-03-01T14:14:16.585Z,6.09
2023-03-01T14:19:34.702Z,6.07
2023-03-01T14:24:42.432Z,6.08
2023-03-01T14:29:57.229Z,6.10
2023-03-01T14:35:01.798Z,6.06
2023-03-01T14:40:06.613Z,6.05
2023-03-01T14:45:14.338Z,6.03
2023-03-01T14:50:43.311Z,6.01
2023-03-01T14:56:01.703Z,6.01
2023-03-01T15:01:06.326Z,5.96
2023-03-01T15:06:10.688Z,5.90
2023-03-01T15:11:30.944Z,5.88
2023-03-01T15:16:35.809Z,5.87
2023-03-01T15:21:41.134Z,5.84
2023-03-01T15:26:53.024Z,5.78
2023-03-01T15:31:59.941Z,5.73
2023-03-01T15:37:07.250Z,5.67
2023-03-01T15:42:32.526Z,5.61
2023-03-01T15:47:37.797Z,5.55
2023-03-01T15:52:42.925Z,5.45
2023-03-01T15:57:47.918Z,5.34
2023-03-01T16:02:52.214Z,5.22
2023-03-01T16:08:01.085Z,5.12
2023-03-01T16:13:05.857Z,4.97
2023-03-01T16:18:12.421Z,4.83
2023-03-01T16:23:22.263Z,4.66
2023-03-01T16:28:29.308Z,4.48
2023-03-01T16:33:36.262Z,4.31
2023-03-01T16:38:42.892Z,4.13
2023-03-01T16:43:52.686Z,3.93
2023-03-01T16:48:58.329Z,3.76
2023-03-01T16:54:05.988Z,3.63
2023-03-01T16:59:10.773Z,3.48
2023-03-01T17:04:15.562Z,3.34
2023-03-01T17:09:30.596Z,3.18
2023-03-01T17:14:40.326Z,3.03
2023-03-01T17:19:46.181Z,2.91
2023-03-01T17:24:50.804Z,2.76
2023-03-01T17:29:59.949Z,2.56
2023-03-01T17:35:06.961Z,2.36
2023-03-01T17:40:15.524Z,2.07
2023-03-01T17:45:20.514Z,1.68
2023-03-01T17:50:26.919Z,1.31
2023-03-01T17:55:35.467Z,1.04
2023-03-01T18:00:40.722Z,0.91
2023-03-01T18:05:45.466Z,0.88
2023-03-01T18:11:00.661Z,0.85
2023-03-01T18:16:10.602Z,0.82
2023-03-01T18:21:19.039Z,0.91
2023-03-01T18:26:25.604Z,1.04
2023-03-01T18:31:34.122Z,1.06
2023-03-01T18:36:41.400Z,0.94
2023-03-01T18:41:48.402Z,0.78
2023-03-01T18:46:58.672Z,0.62
2023-03-01T18:52:06.483Z,0.40
2023-03-01T18:57:13.104Z,0.21
2023-03-01T19:02:17.852Z,0.09
2023-03-01T19:07:23.001Z,-0.05
2023-03-01T19:12:29.482Z,-0.16
2023-03-01T19:17:37.517Z,-0.25
2023-03-01T19:22:43.558Z,-0.23
2023-03-01T19:27:50.087Z,-0.22
2023-03-01T19:32:58.635Z,-0.23
2023-03-01T19:38:06.545Z,-0.35
2023-03-01T19:43:12.576Z,-0.55
2023-03-01T19:48:20.742Z,-0.82
2023-03-01T19:53:30.603Z,-1.03
2023-03-01T19:58:39.356Z,-1.18
2023-03-01T20:03:44.568Z,-1.31
2023-03-01T20:08:52.215Z,-1.42
2023-03-01T20:13:59.959Z,-1.48
2023-03-01T20:19:08.660Z,-1.60
2023-03-01T20:24:14.785Z,-1.68
2023-03-01T20:29:21.055Z,-1.80
2023-03-01T20:34:28.218Z,-1.94
2023-03-01T20:39:34.914Z,-2.03
2023-03-01T20:44:44.999Z,-2.11
2023-03-01T20:49:53.319Z,-2.18
2023-03-01T20:54:58.935Z,-2.20
2023-03-01T21:00:05.678Z,-2.17
2023-03-01T21:05:11.101Z,-2.08
2023-03-01T21:10:20.208Z,-1.91
2023-03-01T21:15:32.281Z,-1.87
2023-03-01T21:20:43.142Z,-1.93
2023-03-01T21:25:48.762Z,-1.98
2023-03-01T21:30:52.547Z,-2.05
2023-03-01T21:36:04.534Z,-2.13
2023-03-01T21:41:16.680Z,-2.16
2023-03-01T21:46:25.979Z,-2.14
2023-03-01T21:51:30.896Z,-2.18
2023-03-01T21:56:39.340Z,-2.28
2023-03-01T22:01:43.561Z,-2.39
2023-03-01T22:06:47.907Z,-2.52
2023-03-01T22:11:54.943Z,-2.59
2023-03-01T22:16:59.536Z,-2.64
2023-03-01T22:22:04.091Z,-2.72
2023-03-01T22:27:07.921Z,-2.82
2023-03-01T22:32:11.834Z,-2.89
2023-03-01T22:37:16.982Z,-2.91
2023-03-01T22:42:20.679Z,-2.90
2023-03-01T22:47:24.376Z,-2.79
2023-03-01T22:52:28.180Z,-2.70
2023-03-01T22:57:32.054Z,-2.56
2023-03-01T23:02:38.337Z,-2.39
2023-03-01T23:07:42.372Z,-2.34
2023-03-01T23:12:46.278Z,-2.49
2023-03-01T23:17:50.221Z,-2.68
2023-03-01T23:22:53.910Z,-2.85
2023-03-01T23:27:57.501Z,-3.03
2023-03-01T23:33:01.396Z,-3.12
2023-03-01T23:38:05.357Z,-3.16
2023-03-01T23:43:08.931Z,-3.21
2023-03-01T23:48:13.833Z,-3.28
2023-03-01T23:53:19.019Z,-3.34
2023-03-01T23:58:28.812Z,-3.39
